Time;durP1;ratioP1;P1;durP2;ratioP2;P2;SDS_P1;SDS_P2;PMS_P1;PMS_P2;Temp;Humidity;BMP_temperature;BMP_pressure;BME280_temperature;BME280_humidity;BME280_pressure;Samples;Min_cycle;Max_cycle;Signal;HPM_P1;HPM_P2
2022/06/17 00:00:31;;;;;;;10.27;7.47;;;;;;;;;;5132970;27;20035;-83
2022/06/17 00:02:57;;;;;;;9.13;7.20;;;;;;;;;;5131981;27;20035;-83
2022/06/17 00:05:23;;;;;;;9.38;6.72;;;;;;;;;;5101566;28;20040;-82
2022/06/17 00:07:49;;;;;;;9.77;7.10;;;;;;;;;;5095365;28;20042;-83
2022/06/17 00:10:19;;;;;;;9.35;6.20;;;;;;;;;;5096015;28;20043;-83
2022/06/17 00:12:45;;;;;;;9.43;7.38;;;;;;;;;;5099237;28;20043;-83
2022/06/17 00:15:14;;;;;;;9.85;7.00;;;;;;;;;;5100111;28;20499;-83
2022/06/17 00:17:43;;;;;;;13.02;8.60;;;;;;;;;;5116483;28;20099;-83
2022/06/17 00:20:13;;;;;;;13.57;9.77;;;;;;;;;;5098329;28;20050;-83
2022/06/17 00:22:41;;;;;;;10.43;7.82;;;;;;;;;;5112924;28;20127;-83
2022/06/17 00:25:15;;;;;;;11.82;8.15;;;;;;;;;;5097157;28;20036;-83
2022/06/17 00:27:41;;;;;;;13.82;8.60;;;;;;;;;;5097898;28;20092;-82
2022/06/17 00:30:15;;;;;;;12.23;9.05;;;;;;;;;;5096501;28;20433;-83
2022/06/17 00:32:41;;;;;;;11.55;7.97;;;;;;;;;;5112473;28;20032;-84
2022/06/17 00:35:07;;;;;;;9.95;7.55;;;;;;;;;;5096782;28;20086;-83
2022/06/17 00:37:34;;;;;;;10.10;7.72;;;;;;;;;;5113945;28;20055;-83
2022/06/17 00:40:00;;;;;;;11.13;7.13;;;;;;;;;;5096596;28;20062;-83
2022/06/17 00:42:26;;;;;;;10.63;8.18;;;;;;;;;;5099363;28;20040;-83
2022/06/17 00:44:59;;;;;;;13.45;9.07;;;;;;;;;;5113910;28;20039;-83
2022/06/17 00:47:46;;;;;;;11.80;8.88;;;;;;;;;;5097483;28;20035;-83
2022/06/17 00:50:16;;;;;;;11.93;8.90;;;;;;;;;;5096667;28;20043;-83
2022/06/17 00:52:46;;;;;;;13.23;9.15;;;;;;;;;;5115501;28;20040;-83
2022/06/17 00:55:33;;;;;;;11.30;8.35;;;;;;;;;;5098028;28;20040;-83
2022/06/17 00:58:01;;;;;;;12.38;8.57;;;;;;;;;;5097273;28;20124;-83
2022/06/17 01:00:28;;;;;;;10.63;7.80;;;;;;;;;;5096838;28;20407;-83
2022/06/17 01:03:00;;;;;;;11.43;8.48;;;;;;;;;;5116707;27;20035;-83
2022/06/17 01:05:31;;;;;;;11.57;8.20;;;;;;;;;;5116965;27;20590;-83
2022/06/17 01:08:14;;;;;;;12.48;8.75;;;;;;;;;;5115226;28;20069;-84
2022/06/17 01:10:45;;;;;;;10.45;7.72;;;;;;;;;;5133785;27;20071;-83
2022/06/17 01:13:11;;;;;;;10.90;8.30;;;;;;;;;;5114855;28;20035;-83
2022/06/17 01:15:40;;;;;;;9.68;7.75;;;;;;;;;;5097385;28;20035;-83
2022/06/17 01:18:07;;;;;;;10.50;7.95;;;;;;;;;;5117037;28;20085;-83
2022/06/17 01:20:33;;;;;;;11.50;7.95;;;;;;;;;;5079473;28;20039;-83
2022/06/17 01:23:04;;;;;;;11.93;7.82;;;;;;;;;;5096135;28;20044;-83
2022/06/17 01:25:35;;;;;;;14.05;7.85;;;;;;;;;;5097322;28;20459;-83
2022/06/17 01:28:04;;;;;;;11.38;7.93;;;;;;;;;;5101070;28;20079;-82
2022/06/17 01:30:39;;;;;;;11.30;8.77;;;;;;;;;;5101043;28;20444;-83
2022/06/17 01:33:08;;;;;;;11.95;8.30;;;;;;;;;;5101466;28;20112;-83
2022/06/17 01:35:37;;;;;;;11.85;8.30;;;;;;;;;;5099174;28;20039;-83
2022/06/17 01:38:03;;;;;;;11.23;8.15;;;;;;;;;;5099122;28;20066;-83
2022/06/17 01:40:30;;;;;;;10.85;7.65;;;;;;;;;;5100123;28;20035;-82
2022/06/17 01:43:00;;;;;;;10.45;7.45;;;;;;;;;;5115131;28;20037;-82
2022/06/17 01:45:26;;;;;;;12.57;8.35;;;;;;;;;;5114528;28;20062;-82
2022/06/17 01:47:53;;;;;;;10.50;7.45;;;;;;;;;;5096739;28;20039;-82
2022/06/17 01:50:21;;;;;;;10.07;7.20;;;;;;;;;;5099686;27;20681;-83
2022/06/17 01:52:55;;;;;;;10.07;7.32;;;;;;;;;;5107088;28;20498;-82
2022/06/17 01:55:24;;;;;;;11.13;7.28;;;;;;;;;;5112629;28;20044;-82
2022/06/17 01:57:59;;;;;;;9.77;6.80;;;;;;;;;;5113125;28;20509;-82
2022/06/17 02:00:27;;;;;;;11.15;7.05;;;;;;;;;;5096340;28;20078;-82
2022/06/17 02:02:56;;;;;;;10.40;6.93;;;;;;;;;;5096479;28;20039;-82
2022/06/17 02:05:24;;;;;;;9.88;6.85;;;;;;;;;;5097317;28;20127;-82
2022/06/17 02:07:52;;;;;;;9.73;6.45;;;;;;;;;;5098129;28;20071;-82
2022/06/17 02:10:20;;;;;;;9.13;6.80;;;;;;;;;;5097847;28;20122;-82
2022/06/17 02:12:46;;;;;;;10.02;6.60;;;;;;;;;;5097248;28;20107;-82
2022/06/17 02:15:13;;;;;;;10.27;7.45;;;;;;;;;;5095696;28;20046;-82
2022/06/17 02:17:41;;;;;;;9.02;6.55;;;;;;;;;;5097749;27;20042;-82
2022/06/17 02:20:08;;;;;;;10.75;6.80;;;;;;;;;;5109195;28;20370;-82
2022/06/17 02:22:35;;;;;;;9.00;6.03;;;;;;;;;;5105503;27;20039;-82
2022/06/17 02:25:04;;;;;;;8.82;6.60;;;;;;;;;;5132699;27;20043;-82
2022/06/17 02:27:32;;;;;;;10.63;7.20;;;;;;;;;;5135966;27;20116;-83
2022/06/17 02:29:59;;;;;;;11.00;6.63;;;;;;;;;;5112197;27;20047;-82
2022/06/17 02:32:26;;;;;;;10.05;7.15;;;;;;;;;;5098585;27;20150;-83
2022/06/17 02:34:54;;;;;;;9.55;7.35;;;;;;;;;;5097916;27;20039;-83
2022/06/17 02:37:20;;;;;;;9.10;6.82;;;;;;;;;;5118543;27;20508;-82
2022/06/17 02:39:48;;;;;;;9.68;7.38;;;;;;;;;;5119562;27;20038;-82
2022/06/17 02:42:20;;;;;;;10.07;7.25;;;;;;;;;;5119413;27;20042;-82
2022/06/17 02:44:48;;;;;;;11.45;7.10;;;;;;;;;;5136330;27;20076;-82
2022/06/17 02:47:14;;;;;;;10.05;6.65;;;;;;;;;;5118318;27;20038;-82
2022/06/17 02:49:40;;;;;;;10.18;6.95;;;;;;;;;;5118284;27;20035;-83
2022/06/17 02:52:11;;;;;;;9.70;7.13;;;;;;;;;;5107395;27;20062;-82
2022/06/17 02:54:40;;;;;;;10.35;7.75;;;;;;;;;;5131067;27;20087;-82
2022/06/17 02:57:10;;;;;;;10.05;7.93;;;;;;;;;;5132459;27;20054;-82
2022/06/17 02:59:41;;;;;;;11.10;7.57;;;;;;;;;;5098267;27;20396;-83
2022/06/17 03:02:14;;;;;;;10.32;7.65;;;;;;;;;;5098299;27;20093;-82
2022/06/17 03:04:42;;;;;;;9.85;7.07;;;;;;;;;;5118714;27;20035;-82
2022/06/17 03:07:16;;;;;;;12.35;7.43;;;;;;;;;;5098836;27;20039;-81
2022/06/17 03:09:43;;;;;;;9.68;7.00;;;;;;;;;;5101837;27;20031;-82
2022/06/17 03:12:09;;;;;;;8.93;6.90;;;;;;;;;;5104577;27;20042;-81
2022/06/17 03:14:47;;;;;;;10.77;7.13;;;;;;;;;;5118005;27;20556;-81
2022/06/17 03:17:15;;;;;;;10.75;7.50;;;;;;;;;;5118150;27;20046;-81
2022/06/17 03:19:42;;;;;;;11.50;7.13;;;;;;;;;;5116717;27;20114;-81
2022/06/17 03:22:10;;;;;;;10.77;7.43;;;;;;;;;;5117150;27;20039;-81
2022/06/17 03:24:42;;;;;;;8.43;6.03;;;;;;;;;;5099643;27;20394;-82
2022/06/17 03:27:13;;;;;;;10.25;6.65;;;;;;;;;;5099654;27;20039;-82
2022/06/17 03:29:42;;;;;;;9.98;7.55;;;;;;;;;;5098708;27;20051;-82
2022/06/17 03:32:29;;;;;;;10.35;7.15;;;;;;;;;;5115955;27;20130;-82
2022/06/17 03:34:55;;;;;;;11.65;7.47;;;;;;;;;;5099373;27;20046;-81
2022/06/17 03:37:28;;;;;;;10.38;7.20;;;;;;;;;;5116314;27;20171;-81
2022/06/17 03:39:59;;;;;;;9.77;6.68;;;;;;;;;;5098976;27;20126;-81
2022/06/17 03:42:44;;;;;;;8.93;7.18;;;;;;;;;;5119534;27;20035;-81
2022/06/17 03:45:10;;;;;;;10.77;7.72;;;;;;;;;;5119603;27;20273;-81
2022/06/17 03:47:45;;;;;;;11.48;7.20;;;;;;;;;;5120823;27;20042;-81
2022/06/17 03:50:18;;;;;;;10.85;6.90;;;;;;;;;;5120438;27;20035;-81
2022/06/17 03:52:48;;;;;;;11.55;6.63;;;;;;;;;;5120812;27;20070;-81
2022/06/17 03:55:15;;;;;;;9.25;6.78;;;;;;;;;;5121950;27;20038;-81
2022/06/17 03:57:44;;;;;;;8.90;6.18;;;;;;;;;;5120455;27;20038;-81
2022/06/17 04:00:15;;;;;;;9.73;6.60;;;;;;;;;;5120027;27;20035;-81
2022/06/17 04:02:41;;;;;;;9.45;6.57;;;;;;;;;;5119843;27;20042;-82
2022/06/17 04:05:14;;;;;;;10.63;7.03;;;;;;;;;;5136314;27;20046;-82
2022/06/17 04:07:40;;;;;;;9.23;6.35;;;;;;;;;;5137010;27;20035;-82
2022/06/17 04:10:07;;;;;;;9.30;6.75;;;;;;;;;;5120530;27;20512;-81
2022/06/17 04:12:34;;;;;;;10.30;6.57;;;;;;;;;;5137450;27;20039;-82
2022/06/17 04:15:24;;;;;;;9.63;6.47;;;;;;;;;;5120178;27;20378;-82
2022/06/17 04:17:51;;;;;;;10.18;7.28;;;;;;;;;;5073603;27;20382;-81
2022/06/17 04:20:21;;;;;;;10.13;6.85;;;;;;;;;;5137978;27;20042;-81
2022/06/17 04:22:49;;;;;;;10.82;6.38;;;;;;;;;;5119856;27;20371;-81
2022/06/17 04:25:37;;;;;;;8.10;5.88;;;;;;;;;;5119511;27;20039;-81
2022/06/17 04:28:06;;;;;;;9.55;6.15;;;;;;;;;;5136548;27;20054;-81
2022/06/17 04:30:42;;;;;;;9.30;5.97;;;;;;;;;;5119549;27;20172;-81
2022/06/17 04:33:22;;;;;;;9.63;6.40;;;;;;;;;;5136876;27;20042;-81
2022/06/17 04:35:50;;;;;;;9.15;6.30;;;;;;;;;;5119206;27;20030;-81
2022/06/17 04:38:19;;;;;;;9.20;6.60;;;;;;;;;;5119165;27;20038;-81
2022/06/17 04:40:54;;;;;;;8.93;6.00;;;;;;;;;;5136226;27;20045;-81
2022/06/17 04:43:28;;;;;;;8.20;5.90;;;;;;;;;;5136552;27;20035;-81
2022/06/17 04:45:56;;;;;;;8.90;5.95;;;;;;;;;;5119225;27;20662;-81
2022/06/17 04:48:22;;;;;;;8.18;6.05;;;;;;;;;;5118132;27;20143;-81
2022/06/17 04:50:48;;;;;;;9.40;6.05;;;;;;;;;;5119151;27;20044;-82
2022/06/17 04:53:16;;;;;;;10.25;6.43;;;;;;;;;;5119193;27;20039;-81
2022/06/17 04:55:43;;;;;;;8.82;5.82;;;;;;;;;;5119355;27;20359;-81
2022/06/17 04:58:14;;;;;;;10.52;6.20;;;;;;;;;;5136148;27;20438;-81
2022/06/17 05:00:44;;;;;;;8.90;5.90;;;;;;;;;;5134848;27;20039;-81
2022/06/17 05:03:10;;;;;;;9.00;6.63;;;;;;;;;;5134822;27;20066;-81
2022/06/17 05:05:39;;;;;;;9.82;7.13;;;;;;;;;;5109280;28;20118;-81
2022/06/17 05:08:25;;;;;;;9.27;6.22;;;;;;;;;;5098051;27;20039;-81
2022/06/17 05:11:18;;;;;;;9.38;6.55;;;;;;;;;;5117395;27;20035;-81
2022/06/17 05:13:53;;;;;;;9.90;7.10;;;;;;;;;;5111825;28;20082;-81
2022/06/17 05:16:20;;;;;;;10.48;6.65;;;;;;;;;;5115274;27;20064;-81
2022/06/17 05:18:46;;;;;;;10.00;6.32;;;;;;;;;;5098357;28;20039;-81
2022/06/17 05:21:16;;;;;;;9.93;6.72;;;;;;;;;;5115785;28;20096;-81
2022/06/17 05:23:43;;;;;;;9.30;6.70;;;;;;;;;;5115566;28;20088;-81
2022/06/17 05:26:09;;;;;;;9.43;6.07;;;;;;;;;;5099088;28;20035;-81
2022/06/17 05:28:35;;;;;;;9.98;6.75;;;;;;;;;;5098302;28;20108;-81
2022/06/17 05:31:01;;;;;;;10.43;7.10;;;;;;;;;;5115571;28;20137;-81
2022/06/17 05:33:28;;;;;;;11.68;7.35;;;;;;;;;;5115745;28;20405;-81
2022/06/17 05:35:55;;;;;;;13.10;7.90;;;;;;;;;;5099030;28;20398;-81
2022/06/17 05:38:21;;;;;;;10.38;7.30;;;;;;;;;;5098306;28;20051;-80
2022/06/17 05:40:47;;;;;;;12.73;7.47;;;;;;;;;;5098558;28;20039;-80
2022/06/17 05:43:13;;;;;;;11.63;7.43;;;;;;;;;;5098504;28;20066;-81
2022/06/17 05:45:40;;;;;;;14.23;7.82;;;;;;;;;;5098436;28;20032;-81
2022/06/17 05:48:06;;;;;;;11.02;7.35;;;;;;;;;;5098607;28;20501;-81
2022/06/17 05:50:33;;;;;;;9.95;6.95;;;;;;;;;;5098768;28;20070;-82
2022/06/17 05:53:00;;;;;;;10.00;7.82;;;;;;;;;;5098913;28;20054;-81
2022/06/17 05:55:28;;;;;;;10.02;6.95;;;;;;;;;;5115650;28;20432;-81
2022/06/17 05:57:54;;;;;;;10.68;7.40;;;;;;;;;;5115272;28;20442;-81
2022/06/17 06:00:21;;;;;;;11.65;7.47;;;;;;;;;;5100384;27;20034;-82
2022/06/17 06:02:47;;;;;;;10.43;7.20;;;;;;;;;;5101832;27;20039;-81
2022/06/17 06:05:15;;;;;;;10.18;7.32;;;;;;;;;;5101076;27;20752;-81
2022/06/17 06:07:41;;;;;;;10.48;7.07;;;;;;;;;;5100837;27;20039;-81
2022/06/17 06:10:08;;;;;;;11.88;7.35;;;;;;;;;;5101443;27;20518;-81
2022/06/17 06:15:19;;;;;;;13.05;7.55;;;;;;;;;;5117915;27;20039;-81
2022/06/17 06:17:46;;;;;;;12.40;7.72;;;;;;;;;;5118939;27;20122;-81
2022/06/17 06:20:13;;;;;;;11.18;7.47;;;;;;;;;;5100787;27;20550;-81
2022/06/17 06:22:39;;;;;;;10.10;7.18;;;;;;;;;;5101674;27;20039;-81
2022/06/17 06:25:05;;;;;;;10.98;7.22;;;;;;;;;;5101277;27;20046;-81
2022/06/17 06:27:32;;;;;;;12.05;7.70;;;;;;;;;;5101918;27;20087;-82
2022/06/17 06:29:58;;;;;;;10.18;7.38;;;;;;;;;;5117689;27;20055;-81
2022/06/17 06:32:24;;;;;;;11.05;7.70;;;;;;;;;;5100868;27;20066;-81
2022/06/17 06:34:51;;;;;;;10.43;7.00;;;;;;;;;;5098373;27;20039;-81
2022/06/17 06:37:18;;;;;;;11.52;8.73;;;;;;;;;;5115677;27;20039;-82
2022/06/17 06:39:44;;;;;;;11.82;8.43;;;;;;;;;;5098993;27;20043;-81
2022/06/17 06:42:10;;;;;;;10.63;7.47;;;;;;;;;;5109999;27;20557;-81
2022/06/17 06:44:37;;;;;;;10.35;7.93;;;;;;;;;;5119455;27;20512;-81
2022/06/17 06:47:03;;;;;;;11.25;7.65;;;;;;;;;;5117024;27;20034;-81
2022/06/17 06:49:29;;;;;;;10.73;7.85;;;;;;;;;;5102946;27;20117;-82
2022/06/17 06:51:56;;;;;;;10.43;8.20;;;;;;;;;;5125102;27;20035;-82
2022/06/17 06:54:22;;;;;;;9.90;7.65;;;;;;;;;;5128760;27;20062;-82
2022/06/17 06:56:49;;;;;;;9.77;7.93;;;;;;;;;;5118490;27;20039;-81
2022/06/17 06:59:16;;;;;;;12.30;8.35;;;;;;;;;;5112487;27;20046;-81
2022/06/17 07:01:42;;;;;;;12.73;8.25;;;;;;;;;;5115325;27;20394;-81
2022/06/17 07:04:09;;;;;;;11.07;7.82;;;;;;;;;;5112350;27;20125;-81
2022/06/17 07:06:36;;;;;;;14.25;8.18;;;;;;;;;;5137093;27;20035;-81
2022/06/17 07:09:02;;;;;;;12.95;8.27;;;;;;;;;;5131108;27;20113;-82
2022/06/17 07:11:29;;;;;;;10.23;7.25;;;;;;;;;;5107172;27;20039;-81
2022/06/17 07:13:55;;;;;;;12.82;7.25;;;;;;;;;;5138364;27;20043;-82
2022/06/17 07:16:21;;;;;;;10.48;6.95;;;;;;;;;;5119818;27;20051;-81
2022/06/17 07:18:47;;;;;;;10.07;7.45;;;;;;;;;;5117137;27;20039;-81
2022/06/17 07:21:14;;;;;;;10.85;7.93;;;;;;;;;;5098887;27;20047;-82
2022/06/17 07:23:45;;;;;;;13.02;7.88;;;;;;;;;;5101172;27;20042;-81
2022/06/17 07:26:16;;;;;;;9.73;7.55;;;;;;;;;;5116951;27;20035;-81
2022/06/17 07:28:42;;;;;;;11.82;7.75;;;;;;;;;;5120066;27;20059;-81
2022/06/17 07:31:08;;;;;;;10.02;7.28;;;;;;;;;;5136864;27;20043;-81
2022/06/17 07:33:35;;;;;;;9.77;7.32;;;;;;;;;;5138414;27;20072;-81
2022/06/17 07:36:01;;;;;;;10.23;6.75;;;;;;;;;;5120686;27;20077;-81
2022/06/17 07:41:16;;;;;;;13.05;6.88;;;;;;;;;;5130599;27;20043;-81
2022/06/17 07:43:42;;;;;;;10.23;7.40;;;;;;;;;;5104534;27;20126;-81
2022/06/17 07:46:10;;;;;;;9.95;7.00;;;;;;;;;;5124987;27;20099;-81
2022/06/17 07:48:38;;;;;;;11.50;7.35;;;;;;;;;;5121084;27;20043;-81
2022/06/17 07:51:06;;;;;;;10.63;7.45;;;;;;;;;;5099601;27;20402;-81
2022/06/17 07:53:34;;;;;;;10.23;6.97;;;;;;;;;;5118339;27;20043;-80
2022/06/17 07:56:00;;;;;;;12.52;7.20;;;;;;;;;;5104210;27;20040;-82
2022/06/17 07:58:27;;;;;;;10.98;7.10;;;;;;;;;;5099148;27;20068;-81
2022/06/17 08:00:55;;;;;;;9.20;6.63;;;;;;;;;;5101781;27;20546;-82
2022/06/17 08:03:21;;;;;;;11.25;6.53;;;;;;;;;;5100127;27;20125;-83
2022/06/17 08:05:53;;;;;;;8.88;6.60;;;;;;;;;;5099657;27;20042;-82
2022/06/17 08:08:39;;;;;;;10.20;6.90;;;;;;;;;;5116343;27;20038;-81
2022/06/17 08:11:05;;;;;;;9.30;6.85;;;;;;;;;;5098763;27;20034;-82
2022/06/17 08:13:32;;;;;;;10.40;6.60;;;;;;;;;;5117274;27;20050;-82
2022/06/17 08:15:59;;;;;;;10.15;6.15;;;;;;;;;;5100201;27;20043;-82
2022/06/17 08:18:26;;;;;;;8.88;6.10;;;;;;;;;;5103606;27;20128;-83
2022/06/17 08:20:52;;;;;;;9.57;6.22;;;;;;;;;;5103779;27;20039;-82
2022/06/17 08:23:19;;;;;;;9.85;5.82;;;;;;;;;;5098140;27;20045;-83
2022/06/17 08:25:46;;;;;;;10.88;6.32;;;;;;;;;;5120878;27;20038;-84
2022/06/17 08:28:14;;;;;;;9.70;5.95;;;;;;;;;;5118166;27;20379;-84
2022/06/17 08:30:42;;;;;;;8.93;6.15;;;;;;;;;;5119124;27;20039;-83
2022/06/17 08:33:09;;;;;;;9.77;6.45;;;;;;;;;;5118017;27;20393;-84
2022/06/17 08:35:38;;;;;;;8.50;5.78;;;;;;;;;;5119482;27;20038;-83
2022/06/17 08:38:05;;;;;;;8.52;5.30;;;;;;;;;;5117979;27;20045;-82
2022/06/17 08:40:38;;;;;;;8.30;5.30;;;;;;;;;;5119186;27;20045;-84
2022/06/17 08:43:10;;;;;;;9.88;5.70;;;;;;;;;;5132410;27;20030;-84
2022/06/17 08:45:52;;;;;;;7.60;5.82;;;;;;;;;;5104224;27;20045;-82
2022/06/17 08:48:37;;;;;;;8.55;5.30;;;;;;;;;;5107136;27;20071;-84
2022/06/17 08:51:15;;;;;;;8.27;5.60;;;;;;;;;;5096810;28;20039;-83
2022/06/17 08:53:48;;;;;;;8.50;5.22;;;;;;;;;;5097879;27;20392;-84
2022/06/17 08:56:35;;;;;;;7.97;5.60;;;;;;;;;;5096913;27;20043;-82
2022/06/17 08:59:09;;;;;;;8.18;5.78;;;;;;;;;;5078997;28;20041;-83
2022/06/17 09:01:54;;;;;;;9.25;5.18;;;;;;;;;;5094039;28;20043;-82
2022/06/17 09:04:26;;;;;;;7.38;4.72;;;;;;;;;;5094121;28;20168;-84
2022/06/17 09:07:11;;;;;;;8.85;5.00;;;;;;;;;;5113469;27;20031;-82
2022/06/17 09:09:40;;;;;;;8.30;5.55;;;;;;;;;;5115651;27;20030;-83
2022/06/17 09:12:16;;;;;;;8.95;5.45;;;;;;;;;;5098664;28;20461;-83
2022/06/17 09:14:50;;;;;;;8.82;5.40;;;;;;;;;;5099105;28;20035;-83
2022/06/17 09:17:22;;;;;;;8.98;5.10;;;;;;;;;;5099313;28;20502;-83
2022/06/17 09:19:52;;;;;;;7.22;4.95;;;;;;;;;;5097573;28;20043;-83
2022/06/17 09:22:23;;;;;;;9.05;4.82;;;;;;;;;;5098371;28;20050;-83
2022/06/17 09:24:50;;;;;;;7.90;4.80;;;;;;;;;;5099098;28;20081;-83
2022/06/17 09:27:29;;;;;;;8.13;5.30;;;;;;;;;;5116072;28;20042;-83
2022/06/17 09:30:06;;;;;;;7.65;5.22;;;;;;;;;;5096917;28;20222;-84
2022/06/17 09:32:54;;;;;;;11.18;6.25;;;;;;;;;;5097995;28;20039;-83
2022/06/17 09:35:25;;;;;;;9.73;5.57;;;;;;;;;;5102673;27;20047;-83
2022/06/17 09:38:06;;;;;;;8.50;5.03;;;;;;;;;;5102964;27;20104;-83
2022/06/17 09:40:39;;;;;;;11.07;6.05;;;;;;;;;;5092127;27;20073;-83
2022/06/17 09:43:21;;;;;;;7.93;5.17;;;;;;;;;;5120446;27;20043;-81
2022/06/17 09:45:47;;;;;;;10.50;5.32;;;;;;;;;;5121978;27;20288;-81
2022/06/17 09:48:33;;;;;;;9.10;5.50;;;;;;;;;;5138829;27;20042;-81
2022/06/17 09:51:06;;;;;;;7.78;5.32;;;;;;;;;;5109703;27;20039;-81
2022/06/17 09:53:45;;;;;;;9.23;5.60;;;;;;;;;;5132832;27;20042;-81
2022/06/17 09:56:15;;;;;;;9.15;6.15;;;;;;;;;;5079626;28;20036;-81
2022/06/17 09:58:47;;;;;;;11.40;6.05;;;;;;;;;;5079587;28;20039;-81
2022/06/17 10:01:14;;;;;;;9.13;5.60;;;;;;;;;;5097014;28;20039;-81
2022/06/17 10:03:47;;;;;;;9.55;5.35;;;;;;;;;;5079377;28;20039;-84
2022/06/17 10:06:32;;;;;;;9.05;5.43;;;;;;;;;;5092515;27;20159;-80
2022/06/17 10:09:01;;;;;;;9.43;5.30;;;;;;;;;;5120504;27;20550;-81
2022/06/17 10:11:32;;;;;;;9.95;5.50;;;;;;;;;;5120642;27;20116;-82
2022/06/17 10:14:01;;;;;;;8.23;4.82;;;;;;;;;;5099798;27;20046;-81
2022/06/17 10:19:39;;;;;;;9.25;4.68;;;;;;;;;;5119142;27;20433;-81
2022/06/17 10:22:28;;;;;;;7.70;4.68;;;;;;;;;;5100346;27;20043;-81
2022/06/17 10:25:17;;;;;;;7.63;4.40;;;;;;;;;;5130477;27;20466;-82
2022/06/17 10:27:52;;;;;;;7.95;4.20;;;;;;;;;;5118205;27;20482;-82
2022/06/17 10:30:45;;;;;;;7.38;4.32;;;;;;;;;;5115783;27;20035;-81
2022/06/17 10:33:12;;;;;;;7.88;4.47;;;;;;;;;;5080691;27;20047;-81
2022/06/17 10:35:39;;;;;;;9.95;4.88;;;;;;;;;;5118133;27;20467;-81
2022/06/17 10:38:07;;;;;;;8.00;4.95;;;;;;;;;;5116636;27;20490;-82
2022/06/17 10:40:35;;;;;;;10.00;4.65;;;;;;;;;;5117091;27;20042;-81
2022/06/17 10:43:04;;;;;;;7.90;4.03;;;;;;;;;;5117927;27;20046;-81
2022/06/17 10:45:30;;;;;;;9.48;4.93;;;;;;;;;;5128026;27;20513;-81
2022/06/17 10:48:16;;;;;;;7.28;4.47;;;;;;;;;;5095560;28;20186;-80
2022/06/17 10:50:42;;;;;;;7.80;4.63;;;;;;;;;;5095770;28;20032;-81
2022/06/17 10:53:11;;;;;;;8.40;4.38;;;;;;;;;;5080479;28;20035;-82
2022/06/17 10:55:39;;;;;;;7.10;4.68;;;;;;;;;;5113280;28;20039;-81
2022/06/17 10:58:05;;;;;;;10.23;5.28;;;;;;;;;;5090072;27;20095;-82
2022/06/17 11:00:34;;;;;;;7.43;4.55;;;;;;;;;;5118216;27;20036;-81
2022/06/17 11:03:19;;;;;;;7.70;5.38;;;;;;;;;;5095939;28;20040;-82
2022/06/17 11:05:51;;;;;;;8.02;4.90;;;;;;;;;;5097629;28;20047;-81
2022/06/17 11:08:22;;;;;;;11.05;5.18;;;;;;;;;;5114173;28;20062;-82
2022/06/17 11:10:52;;;;;;;7.50;5.07;;;;;;;;;;5099154;27;20134;-82
2022/06/17 11:13:19;;;;;;;8.40;4.95;;;;;;;;;;5115105;27;20046;-83
2022/06/17 11:15:48;;;;;;;7.90;5.13;;;;;;;;;;5101209;28;20067;-81
2022/06/17 11:18:20;;;;;;;7.97;4.80;;;;;;;;;;5127001;27;20065;-80
2022/06/17 11:21:16;;;;;;;10.27;5.70;;;;;;;;;;5077689;28;20046;-81
2022/06/17 11:23:47;;;;;;;9.98;5.25;;;;;;;;;;5084342;27;20070;-82
2022/06/17 11:26:26;;;;;;;7.85;4.93;;;;;;;;;;5096570;27;20035;-82
2022/06/17 11:28:58;;;;;;;8.68;5.65;;;;;;;;;;5078997;28;20149;-83
2022/06/17 11:31:24;;;;;;;10.30;5.50;;;;;;;;;;5104560;27;20043;-82
2022/06/17 11:33:54;;;;;;;8.43;4.97;;;;;;;;;;5130339;27;20043;-79
2022/06/17 11:36:25;;;;;;;7.50;5.07;;;;;;;;;;5113440;27;20389;-80
2022/06/17 11:38:51;;;;;;;9.30;4.95;;;;;;;;;;5122083;27;20035;-80
2022/06/17 11:41:30;;;;;;;9.80;5.25;;;;;;;;;;5121400;27;20049;-81
2022/06/17 11:44:05;;;;;;;9.07;5.40;;;;;;;;;;5096028;28;20405;-81
2022/06/17 11:46:34;;;;;;;8.90;4.90;;;;;;;;;;5105981;28;20036;-81
2022/06/17 11:49:06;;;;;;;7.05;5.07;;;;;;;;;;5102947;27;20035;-81
2022/06/17 11:51:34;;;;;;;7.15;4.50;;;;;;;;;;5114004;27;20039;-79
2022/06/17 11:54:03;;;;;;;7.72;5.07;;;;;;;;;;5128821;27;20039;-80
2022/06/17 11:56:32;;;;;;;8.68;5.15;;;;;;;;;;5129762;27;20538;-81
2022/06/17 11:59:01;;;;;;;9.65;5.72;;;;;;;;;;5117939;27;20558;-81
2022/06/17 12:01:28;;;;;;;9.20;5.35;;;;;;;;;;5091071;27;20050;-81
2022/06/17 12:03:54;;;;;;;8.65;5.32;;;;;;;;;;5126258;27;20545;-82
2022/06/17 12:06:27;;;;;;;7.80;5.60;;;;;;;;;;5099457;27;20032;-81
2022/06/17 12:09:02;;;;;;;6.85;4.90;;;;;;;;;;5116873;27;20051;-80
2022/06/17 12:11:42;;;;;;;8.63;5.70;;;;;;;;;;5125152;27;20035;-81
2022/06/17 12:14:41;;;;;;;10.35;5.28;;;;;;;;;;5099363;27;20071;-81
2022/06/17 12:17:10;;;;;;;7.22;5.47;;;;;;;;;;5048900;28;20076;-81
2022/06/17 12:19:37;;;;;;;9.68;5.40;;;;;;;;;;5125931;27;20035;-82
2022/06/17 12:22:06;;;;;;;8.75;5.55;;;;;;;;;;5099242;27;20413;-81
2022/06/17 12:24:35;;;;;;;10.00;5.13;;;;;;;;;;5100007;28;20392;-82
2022/06/17 12:27:07;;;;;;;8.85;5.25;;;;;;;;;;5091601;28;20043;-82
2022/06/17 12:29:40;;;;;;;8.10;5.05;;;;;;;;;;5096695;27;20090;-82
2022/06/17 12:32:15;;;;;;;8.23;4.88;;;;;;;;;;5102223;28;20043;-81
2022/06/17 12:34:43;;;;;;;8.43;4.63;;;;;;;;;;5105757;27;20039;-82
2022/06/17 12:37:16;;;;;;;10.88;4.97;;;;;;;;;;5093087;28;20035;-81
2022/06/17 12:40:06;;;;;;;7.25;4.78;;;;;;;;;;5115105;27;20043;-82
2022/06/17 12:42:41;;;;;;;6.18;4.78;;;;;;;;;;5103429;27;20116;-81
2022/06/17 12:45:24;;;;;;;7.57;4.80;;;;;;;;;;5110040;27;20130;-80
2022/06/17 12:48:03;;;;;;;8.82;4.28;;;;;;;;;;5128459;27;20041;-78
2022/06/17 12:53:49;;;;;;;7.80;4.50;;;;;;;;;;5103861;27;20490;-83
2022/06/17 12:56:25;;;;;;;8.82;5.15;;;;;;;;;;5098238;28;20070;-84
2022/06/17 12:59:10;;;;;;;9.77;4.90;;;;;;;;;;5125468;27;20453;-84
2022/06/17 13:01:36;;;;;;;;;;;;;;;;;;5091736;28;20039;-83
2022/06/17 13:04:23;;;;;;;7.88;4.45;;;;;;;;;;5122051;27;19919;-82
2022/06/17 13:07:01;;;;;;;9.70;5.10;;;;;;;;;;5094963;27;20509;-84
2022/06/17 13:09:34;;;;;;;9.27;5.18;;;;;;;;;;5084402;28;20051;-83
2022/06/17 13:12:02;;;;;;;8.57;4.38;;;;;;;;;;5121962;27;20039;-86
2022/06/17 13:14:36;;;;;;;12.20;5.38;;;;;;;;;;5095493;28;20036;-90
2022/06/17 13:17:07;;;;;;;10.32;5.18;;;;;;;;;;5117278;27;20095;-89
2022/06/17 13:19:42;;;;;;;7.60;5.47;;;;;;;;;;5114936;28;20043;-87
2022/06/17 13:22:37;;;;;;;8.68;4.70;;;;;;;;;;5111297;28;20446;-89
2022/06/17 13:25:07;;;;;;;7.88;4.72;;;;;;;;;;5060220;28;20078;-86
2022/06/17 13:27:45;;;;;;;7.03;5.05;;;;;;;;;;5077491;28;20126;-89
2022/06/17 13:30:22;;;;;;;7.38;4.75;;;;;;;;;;5077483;28;20101;-87
2022/06/17 13:32:57;;;;;;;6.93;4.70;;;;;;;;;;5078189;28;20075;-87
2022/06/17 13:35:34;;;;;;;8.00;4.90;;;;;;;;;;5077577;28;20039;-87
2022/06/17 13:38:20;;;;;;;7.70;4.43;;;;;;;;;;5076990;28;20127;-89
2022/06/17 13:40:54;;;;;;;7.18;4.85;;;;;;;;;;5076474;28;20031;-90
2022/06/17 13:43:27;;;;;;;7.70;5.07;;;;;;;;;;5077637;28;20088;-90
2022/06/17 13:46:05;;;;;;;7.60;5.07;;;;;;;;;;5077630;28;20051;-90
2022/06/17 13:48:34;;;;;;;7.65;4.90;;;;;;;;;;5094983;28;20047;-86
2022/06/17 13:51:07;;;;;;;7.78;4.80;;;;;;;;;;5077073;28;20086;-86
2022/06/17 13:53:39;;;;;;;8.43;4.82;;;;;;;;;;5077044;28;20067;-85
2022/06/17 13:56:09;;;;;;;8.60;4.88;;;;;;;;;;5077323;28;20122;-85
2022/06/17 13:58:47;;;;;;;6.95;5.03;;;;;;;;;;5075980;28;20040;-86
2022/06/17 14:01:13;;;;;;;8.38;5.00;;;;;;;;;;5060407;28;20043;-85
2022/06/17 14:03:56;;;;;;;6.93;4.68;;;;;;;;;;5073616;28;20042;-84
2022/06/17 14:06:43;;;;;;;7.10;4.78;;;;;;;;;;5066055;28;20036;-85
2022/06/17 14:09:25;;;;;;;7.57;4.55;;;;;;;;;;5052096;28;20044;-85
2022/06/17 14:11:51;;;;;;;6.38;4.70;;;;;;;;;;5039719;28;20047;-85
2022/06/17 14:14:21;;;;;;;7.78;4.72;;;;;;;;;;5063158;28;20043;-88
2022/06/17 14:17:06;;;;;;;8.00;4.93;;;;;;;;;;5074468;28;20044;-85
2022/06/17 14:19:32;;;;;;;;;;;;;;;;;;5072859;28;20120;-85
2022/06/17 14:21:59;;;;;;;8.60;4.95;;;;;;;;;;5062168;28;19938;-85
2022/06/17 14:24:43;;;;;;;7.68;4.30;;;;;;;;;;5084591;28;20483;-85
2022/06/17 14:27:13;;;;;;;6.28;4.63;;;;;;;;;;5058892;28;20071;-87
2022/06/17 14:29:40;;;;;;;6.90;4.70;;;;;;;;;;5095798;27;20063;-84
2022/06/17 14:32:17;;;;;;;7.10;4.78;;;;;;;;;;5099553;27;20043;-85
2022/06/17 14:35:04;;;;;;;6.80;4.90;;;;;;;;;;5118126;27;20137;-86
2022/06/17 14:37:36;;;;;;;8.80;5.18;;;;;;;;;;5097683;27;20039;-86
2022/06/17 14:40:18;;;;;;;7.65;5.00;;;;;;;;;;5108240;27;20042;-84
2022/06/17 14:42:54;;;;;;;7.68;5.18;;;;;;;;;;5102410;27;20050;-86
2022/06/17 14:45:36;;;;;;;7.95;5.07;;;;;;;;;;5120750;27;20525;-84
2022/06/17 14:48:05;;;;;;;9.48;4.70;;;;;;;;;;5135934;27;20486;-84
2022/06/17 14:50:45;;;;;;;6.97;4.72;;;;;;;;;;5119012;27;20498;-86
2022/06/17 14:53:11;;;;;;;9.18;5.00;;;;;;;;;;5079673;28;20491;-84
2022/06/17 14:55:56;;;;;;;8.05;4.93;;;;;;;;;;5078112;28;20036;-84
2022/06/17 14:58:23;;;;;;;7.43;4.85;;;;;;;;;;5078547;28;20192;-85
2022/06/17 15:00:52;;;;;;;9.38;5.00;;;;;;;;;;5083647;27;20077;-87
2022/06/17 15:03:21;;;;;;;7.40;5.28;;;;;;;;;;5135889;27;20039;-87
2022/06/17 15:05:48;;;;;;;6.20;5.00;;;;;;;;;;5119588;27;20084;-88
2022/06/17 15:08:14;;;;;;;7.65;4.38;;;;;;;;;;5119827;27;20078;-87
2022/06/17 15:11:02;;;;;;;6.32;4.75;;;;;;;;;;5114652;27;20062;-86
2022/06/17 15:16:15;;;;;;;9.40;4.80;;;;;;;;;;5136638;27;20046;-85